Time;durP1;ratioP1;P1;durP2;ratioP2;P2;SDS_P1;SDS_P2;PMS_P1;PMS_P2;Temp;Humidity;BMP_temperature;BMP_pressure;BME280_temperature;BME280_humidity;BME280_pressure;Samples;Min_cycle;Max_cycle;Signal;HPM_P1;HPM_P2
2021/11/13 00:00:39;;;;;;;17.83;10.97;;;;;;;;;;4992537;28;20393;-51
2021/11/13 00:03:06;;;;;;;15.03;10.70;;;;;;;;;;4992453;28;20507;-51
2021/11/13 00:05:32;;;;;;;15.00;10.50;;;;;;;;;;4992424;28;20920;-51
2021/11/13 00:07:58;;;;;;;17.20;10.47;;;;;;;;;;4992038;28;20402;-51
2021/11/13 00:10:27;;;;;;;14.30;10.80;;;;;;;;;;4992529;28;20916;-51
2021/11/13 00:12:58;;;;;;;14.83;10.53;;;;;;;;;;4992254;28;20449;-51
2021/11/13 00:15:24;;;;;;;16.90;11.10;;;;;;;;;;4993023;28;20463;-53
2021/11/13 00:17:51;;;;;;;16.73;11.30;;;;;;;;;;4992567;28;20412;-52
2021/11/13 00:20:18;;;;;;;16.57;9.73;;;;;;;;;;4992780;28;20433;-52
2021/11/13 00:22:44;;;;;;;14.83;9.70;;;;;;;;;;4992522;28;20511;-52
2021/11/13 00:25:10;;;;;;;14.00;9.70;;;;;;;;;;4994652;28;20877;-52
2021/11/13 00:27:36;;;;;;;14.90;10.70;;;;;;;;;;4996287;28;20418;-53
2021/11/13 00:30:04;;;;;;;14.43;10.33;;;;;;;;;;4996747;28;20404;-53
2021/11/13 00:32:30;;;;;;;15.27;11.20;;;;;;;;;;4996728;28;20520;-52
2021/11/13 00:34:56;;;;;;;14.67;9.67;;;;;;;;;;4996774;28;20471;-52
2021/11/13 00:37:22;;;;;;;18.00;11.27;;;;;;;;;;4996591;28;20889;-53
2021/11/13 00:39:48;;;;;;;15.67;10.17;;;;;;;;;;4996162;28;20844;-53
2021/11/13 00:42:14;;;;;;;13.77;9.57;;;;;;;;;;4994608;28;20408;-53
2021/11/13 00:44:40;;;;;;;13.67;10.30;;;;;;;;;;4995966;28;20776;-52
2021/11/13 00:47:06;;;;;;;12.93;9.53;;;;;;;;;;4995781;28;20897;-53
2021/11/13 00:49:32;;;;;;;24.30;11.77;;;;;;;;;;4995576;28;20445;-53
2021/11/13 00:51:58;;;;;;;11.13;9.03;;;;;;;;;;4995773;28;20780;-53
2021/11/13 00:54:25;;;;;;;17.13;11.43;;;;;;;;;;4995634;28;20465;-52
2021/11/13 00:56:51;;;;;;;14.23;10.43;;;;;;;;;;4995690;28;20920;-53
2021/11/13 00:59:17;;;;;;;13.30;10.17;;;;;;;;;;4995468;28;20435;-53
2021/11/13 01:01:43;;;;;;;15.23;10.77;;;;;;;;;;4995702;28;20452;-53
2021/11/13 01:04:09;;;;;;;14.60;10.03;;;;;;;;;;4995417;28;20461;-53
2021/11/13 01:06:36;;;;;;;14.03;10.17;;;;;;;;;;4995471;28;20408;-53
2021/11/13 01:09:03;;;;;;;12.77;9.10;;;;;;;;;;4995283;28;20413;-53
2021/11/13 01:11:29;;;;;;;16.90;11.30;;;;;;;;;;4995776;28;20458;-53
2021/11/13 01:13:56;;;;;;;15.73;10.97;;;;;;;;;;4995519;28;20466;-53
2021/11/13 01:16:23;;;;;;;12.33;8.90;;;;;;;;;;4995353;28;20400;-53
2021/11/13 01:18:49;;;;;;;13.90;10.50;;;;;;;;;;4995072;28;20409;-53
2021/11/13 01:21:15;;;;;;;13.13;9.40;;;;;;;;;;4995228;28;20399;-53
2021/11/13 01:23:41;;;;;;;15.37;10.27;;;;;;;;;;4995256;28;20713;-53
2021/11/13 01:26:07;;;;;;;13.63;9.67;;;;;;;;;;4995248;28;20477;-53
2021/11/13 01:28:34;;;;;;;13.97;10.37;;;;;;;;;;4994919;28;20468;-53
2021/11/13 01:31:00;;;;;;;16.13;10.50;;;;;;;;;;4995193;28;20909;-53
2021/11/13 01:33:26;;;;;;;17.37;10.10;;;;;;;;;;4994866;28;20431;-53
2021/11/13 01:35:52;;;;;;;12.60;8.63;;;;;;;;;;4994730;28;20400;-53
2021/11/13 01:38:18;;;;;;;13.83;9.87;;;;;;;;;;4994723;28;20393;-53
2021/11/13 01:40:45;;;;;;;13.03;9.50;;;;;;;;;;4994938;28;20396;-53
2021/11/13 01:43:11;;;;;;;14.40;10.07;;;;;;;;;;4994838;28;20420;-53
2021/11/13 01:45:37;;;;;;;14.33;10.10;;;;;;;;;;4994854;28;20397;-53
2021/11/13 01:48:03;;;;;;;14.00;9.40;;;;;;;;;;4994381;28;20743;-53
2021/11/13 01:50:38;;;;;;;14.43;10.40;;;;;;;;;;4994682;28;20406;-53
2021/11/13 01:53:04;;;;;;;15.63;9.37;;;;;;;;;;4994679;28;20426;-53
2021/11/13 01:55:35;;;;;;;13.03;9.30;;;;;;;;;;4994640;28;20464;-53
2021/11/13 01:58:02;;;;;;;12.27;9.00;;;;;;;;;;4994346;28;20415;-53
2021/11/13 02:00:33;;;;;;;15.10;9.83;;;;;;;;;;4994521;28;20818;-53
2021/11/13 02:03:00;;;;;;;12.77;9.43;;;;;;;;;;4994067;28;20432;-53
2021/11/13 02:05:27;;;;;;;11.27;8.73;;;;;;;;;;4993969;28;20405;-53
2021/11/13 02:07:54;;;;;;;19.37;9.23;;;;;;;;;;4994344;28;20437;-53
2021/11/13 02:10:20;;;;;;;12.63;9.40;;;;;;;;;;4994303;28;20416;-53
2021/11/13 02:12:46;;;;;;;13.03;9.33;;;;;;;;;;4994166;28;20987;-53
2021/11/13 02:15:13;;;;;;;17.27;9.03;;;;;;;;;;4994552;28;20457;-53
2021/11/13 02:17:39;;;;;;;12.20;9.00;;;;;;;;;;4993981;28;20519;-53
2021/11/13 02:20:15;;;;;;;13.63;9.60;;;;;;;;;;4994126;28;20403;-53
2021/11/13 02:22:41;;;;;;;14.97;9.53;;;;;;;;;;4994096;28;20427;-53
2021/11/13 02:25:07;;;;;;;14.03;9.37;;;;;;;;;;4994128;28;20516;-53
2021/11/13 02:27:33;;;;;;;14.00;9.87;;;;;;;;;;4992386;28;20426;-53
2021/11/13 02:29:59;;;;;;;16.90;10.00;;;;;;;;;;4994041;28;20419;-53
2021/11/13 02:32:25;;;;;;;17.43;9.53;;;;;;;;;;4993943;28;20446;-53
2021/11/13 02:34:51;;;;;;;14.73;9.90;;;;;;;;;;4993838;28;20459;-53
2021/11/13 02:37:17;;;;;;;14.47;9.80;;;;;;;;;;4993735;28;20492;-53
2021/11/13 02:39:43;;;;;;;13.00;9.80;;;;;;;;;;4993675;28;20425;-53
2021/11/13 02:42:09;;;;;;;13.57;9.63;;;;;;;;;;4993621;28;20411;-53
2021/11/13 02:44:37;;;;;;;14.43;10.10;;;;;;;;;;4993736;28;20407;-53
2021/11/13 02:47:04;;;;;;;12.40;9.83;;;;;;;;;;4992932;28;20482;-53
2021/11/13 02:49:31;;;;;;;21.87;11.70;;;;;;;;;;4993548;28;20835;-53
2021/11/13 02:51:56;;;;;;;11.73;8.83;;;;;;;;;;4993652;28;20433;-53
2021/11/13 02:54:22;;;;;;;14.00;8.87;;;;;;;;;;4993464;28;20962;-53
2021/11/13 02:56:48;;;;;;;15.90;9.67;;;;;;;;;;4993388;28;20405;-53
2021/11/13 02:59:14;;;;;;;17.10;10.27;;;;;;;;;;4993285;28;20433;-53
2021/11/13 03:01:40;;;;;;;22.10;11.17;;;;;;;;;;4993439;28;20770;-53
2021/11/13 03:04:06;;;;;;;18.20;10.30;;;;;;;;;;4993292;28;20426;-53
2021/11/13 03:06:32;;;;;;;16.17;9.53;;;;;;;;;;4993271;28;20780;-53
2021/11/13 03:08:58;;;;;;;22.77;11.00;;;;;;;;;;4993100;28;20487;-53
2021/11/13 03:11:24;;;;;;;13.67;9.30;;;;;;;;;;4993376;28;20828;-53
2021/11/13 03:13:51;;;;;;;14.23;9.63;;;;;;;;;;4992997;28;20456;-53
2021/11/13 03:16:18;;;;;;;13.60;9.57;;;;;;;;;;4993213;28;20401;-53
2021/11/13 03:18:45;;;;;;;13.73;10.93;;;;;;;;;;4992799;28;20434;-53
2021/11/13 03:21:11;;;;;;;15.87;9.90;;;;;;;;;;4993094;28;20401;-53
2021/11/13 03:23:38;;;;;;;15.80;10.00;;;;;;;;;;4992923;28;20434;-53
2021/11/13 03:26:06;;;;;;;20.80;10.77;;;;;;;;;;4992926;28;20408;-53
2021/11/13 03:28:36;;;;;;;11.80;8.40;;;;;;;;;;4992646;28;20861;-53
2021/11/13 03:31:03;;;;;;;17.90;10.50;;;;;;;;;;4992939;28;20406;-53
2021/11/13 03:33:30;;;;;;;17.53;10.50;;;;;;;;;;4992720;28;20443;-53
2021/11/13 03:35:57;;;;;;;16.47;10.03;;;;;;;;;;4992870;28;20818;-53
2021/11/13 03:38:23;;;;;;;18.50;11.30;;;;;;;;;;4992472;28;20782;-53
2021/11/13 03:40:49;;;;;;;16.97;10.93;;;;;;;;;;4992768;28;20412;-53
2021/11/13 03:43:15;;;;;;;19.23;11.70;;;;;;;;;;4992671;28;20859;-53
2021/11/13 03:45:42;;;;;;;18.70;12.97;;;;;;;;;;4992733;28;20408;-53
2021/11/13 03:48:08;;;;;;;18.10;12.17;;;;;;;;;;4991083;28;20423;-52
2021/11/13 03:50:35;;;;;;;20.70;12.30;;;;;;;;;;4992657;28;20412;-53
2021/11/13 03:53:01;;;;;;;21.87;13.53;;;;;;;;;;4992482;28;20506;-52
2021/11/13 03:55:27;;;;;;;22.43;13.07;;;;;;;;;;4992478;28;20460;-52
2021/11/13 03:57:53;;;;;;;31.20;12.80;;;;;;;;;;4992252;28;20410;-52
2021/11/13 04:00:21;;;;;;;20.50;13.60;;;;;;;;;;4992531;28;20405;-52
2021/11/13 04:02:51;;;;;;;21.10;14.47;;;;;;;;;;4992426;28;20950;-52
2021/11/13 04:05:17;;;;;;;26.13;14.17;;;;;;;;;;4992427;28;20404;-52
2021/11/13 04:07:43;;;;;;;25.83;14.27;;;;;;;;;;4992106;28;20809;-52
2021/11/13 04:10:11;;;;;;;23.67;14.90;;;;;;;;;;4992441;28;20409;-51
2021/11/13 04:12:37;;;;;;;27.00;15.13;;;;;;;;;;4992260;28;20204;-52
2021/11/13 04:15:03;;;;;;;26.00;15.20;;;;;;;;;;4992389;28;20356;-53
2021/11/13 04:17:29;;;;;;;21.40;12.90;;;;;;;;;;4992012;28;20405;-52
2021/11/13 04:19:56;;;;;;;19.30;13.47;;;;;;;;;;4992297;28;20400;-52
2021/11/13 04:22:21;;;;;;;25.40;14.40;;;;;;;;;;4992204;28;20404;-51
2021/11/13 04:24:47;;;;;;;27.10;13.87;;;;;;;;;;4992279;28;20840;-52
2021/11/13 04:27:15;;;;;;;25.23;14.30;;;;;;;;;;4992198;28;20436;-51
2021/11/13 04:29:42;;;;;;;20.73;12.63;;;;;;;;;;4990894;28;20893;-51
2021/11/13 04:32:08;;;;;;;22.38;13.70;;;;;;;;;;4992071;28;20911;-51
2021/11/13 04:34:44;;;;;;;24.87;14.50;;;;;;;;;;4991844;28;20263;-51
2021/11/13 04:37:18;;;;;;;24.27;13.52;;;;;;;;;;4992194;28;20404;-51
2021/11/13 04:39:48;;;;;;;25.50;14.67;;;;;;;;;;4992117;28;20165;-51
2021/11/13 04:42:15;;;;;;;27.55;14.63;;;;;;;;;;4992119;28;20396;-51
2021/11/13 04:44:41;;;;;;;27.00;13.93;;;;;;;;;;4992119;28;20179;-52
2021/11/13 04:47:07;;;;;;;23.10;13.87;;;;;;;;;;4991893;28;20431;-51
2021/11/13 04:49:33;;;;;;;21.97;13.50;;;;;;;;;;4991885;28;20500;-51
2021/11/13 04:51:59;;;;;;;28.47;13.97;;;;;;;;;;4992111;28;20443;-51
2021/11/13 04:54:25;;;;;;;21.23;13.50;;;;;;;;;;4991875;28;20459;-52
2021/11/13 04:56:53;;;;;;;27.27;15.20;;;;;;;;;;4991966;28;20256;-52
2021/11/13 04:59:19;;;;;;;23.57;13.93;;;;;;;;;;4991832;28;20755;-51
2021/11/13 05:01:45;;;;;;;23.00;12.73;;;;;;;;;;4991899;28;20539;-52
2021/11/13 05:04:12;;;;;;;27.30;13.63;;;;;;;;;;4990607;28;20797;-52
2021/11/13 05:06:38;;;;;;;20.00;13.27;;;;;;;;;;4991851;28;20444;-52
2021/11/13 05:09:04;;;;;;;21.93;13.40;;;;;;;;;;4991695;28;20872;-52
2021/11/13 05:11:30;;;;;;;16.10;11.80;;;;;;;;;;4994063;28;20516;-52
2021/11/13 05:13:56;;;;;;;18.73;11.40;;;;;;;;;;4995207;28;20607;-52
2021/11/13 05:16:22;;;;;;;20.17;10.50;;;;;;;;;;4995184;28;20401;-51
2021/11/13 05:18:48;;;;;;;15.20;12.30;;;;;;;;;;4995170;28;20880;-52
2021/11/13 05:21:14;;;;;;;19.07;11.70;;;;;;;;;;4995477;28;20404;-52
2021/11/13 05:23:40;;;;;;;13.43;10.57;;;;;;;;;;4995158;28;20421;-53
2021/11/13 05:26:07;;;;;;;15.20;11.03;;;;;;;;;;4995263;28;20531;-51
2021/11/13 05:28:33;;;;;;;15.10;10.23;;;;;;;;;;4994930;28;20483;-52
2021/11/13 05:30:59;;;;;;;15.33;10.67;;;;;;;;;;4995042;28;20940;-52
2021/11/13 05:33:25;;;;;;;12.73;9.90;;;;;;;;;;4994947;28;20430;-52
2021/11/13 05:35:51;;;;;;;15.17;10.63;;;;;;;;;;4995282;28;20392;-52
2021/11/13 05:38:18;;;;;;;16.43;11.93;;;;;;;;;;4994725;28;20909;-52
2021/11/13 05:40:45;;;;;;;17.40;10.53;;;;;;;;;;4995016;28;20825;-53
2021/11/13 05:43:11;;;;;;;13.30;11.07;;;;;;;;;;4994845;28;20426;-51
2021/11/13 05:45:38;;;;;;;12.33;9.30;;;;;;;;;;4994765;28;20409;-52
2021/11/13 05:48:04;;;;;;;13.63;10.83;;;;;;;;;;4994645;28;20401;-52
2021/11/13 05:50:30;;;;;;;13.20;9.90;;;;;;;;;;4993472;28;20507;-52
2021/11/13 05:52:57;;;;;;;17.00;10.60;;;;;;;;;;4994747;28;20425;-52
2021/11/13 05:55:25;;;;;;;13.80;9.77;;;;;;;;;;4994617;28;20453;-52
2021/11/13 05:57:52;;;;;;;15.17;10.00;;;;;;;;;;4994339;28;20402;-51
2021/11/13 06:00:20;;;;;;;14.10;9.90;;;;;;;;;;4994617;28;20888;-52
2021/11/13 06:02:46;;;;;;;14.80;10.20;;;;;;;;;;4994804;28;20873;-52
2021/11/13 06:05:15;;;;;;;13.00;9.20;;;;;;;;;;4994497;28;20916;-52
2021/11/13 06:07:41;;;;;;;13.30;9.00;;;;;;;;;;4994193;28;20483;-52
2021/11/13 06:10:08;;;;;;;14.40;8.57;;;;;;;;;;4994435;28;20438;-52
2021/11/13 06:12:34;;;;;;;13.70;9.90;;;;;;;;;;4994072;28;20448;-51
2021/11/13 06:15:00;;;;;;;13.70;9.20;;;;;;;;;;4994274;28;20463;-52
2021/11/13 06:17:27;;;;;;;11.30;8.13;;;;;;;;;;4994822;28;20401;-50
2021/11/13 06:19:54;;;;;;;15.73;9.80;;;;;;;;;;4994302;28;20412;-50
2021/11/13 06:22:20;;;;;;;11.27;8.70;;;;;;;;;;4993209;28;20424;-50
2021/11/13 06:24:47;;;;;;;11.77;9.50;;;;;;;;;;4994115;28;20416;-50
2021/11/13 06:27:16;;;;;;;14.70;8.57;;;;;;;;;;4993925;28;20988;-52
2021/11/13 06:29:42;;;;;;;12.27;8.40;;;;;;;;;;4993891;28;20460;-51
2021/11/13 06:32:09;;;;;;;10.27;8.40;;;;;;;;;;4993912;28;20456;-51
2021/11/13 06:34:36;;;;;;;11.17;7.93;;;;;;;;;;4993894;28;20507;-50
2021/11/13 06:37:02;;;;;;;12.80;8.70;;;;;;;;;;4993882;28;20432;-52
2021/11/13 06:39:31;;;;;;;11.33;8.73;;;;;;;;;;4993644;28;20832;-51
2021/11/13 06:41:58;;;;;;;11.90;9.00;;;;;;;;;;4993807;28;20901;-50
2021/11/13 06:44:25;;;;;;;12.37;8.50;;;;;;;;;;4993846;28;20456;-52
2021/11/13 06:46:52;;;;;;;10.70;8.43;;;;;;;;;;4993669;28;20900;-50
2021/11/13 06:49:18;;;;;;;12.27;8.60;;;;;;;;;;4986437;28;20421;-50
2021/11/13 06:51:45;;;;;;;13.97;7.80;;;;;;;;;;4993973;28;20768;-50
2021/11/13 06:54:12;;;;;;;12.87;8.57;;;;;;;;;;4993027;28;21005;-50
2021/11/13 06:56:38;;;;;;;10.77;9.07;;;;;;;;;;4994449;28;20401;-50
2021/11/13 06:59:04;;;;;;;10.97;7.93;;;;;;;;;;4991591;28;20520;-50
2021/11/13 07:01:31;;;;;;;12.23;8.27;;;;;;;;;;4993407;28;20953;-50
2021/11/13 07:03:57;;;;;;;12.83;8.27;;;;;;;;;;4993403;28;20515;-50
2021/11/13 07:06:22;;;;;;;13.70;8.00;;;;;;;;;;4993308;28;20448;-51
2021/11/13 07:08:48;;;;;;;13.00;9.33;;;;;;;;;;4992941;28;20425;-50
2021/11/13 07:11:14;;;;;;;11.53;8.80;;;;;;;;;;4993295;28;20414;-51
2021/11/13 07:13:41;;;;;;;10.50;7.77;;;;;;;;;;4992929;28;20453;-51
2021/11/13 07:16:08;;;;;;;11.63;8.50;;;;;;;;;;4993175;28;20906;-51
2021/11/13 07:18:35;;;;;;;12.93;9.10;;;;;;;;;;4992976;28;20398;-50
2021/11/13 07:21:05;;;;;;;10.57;8.03;;;;;;;;;;4993114;28;20405;-50
2021/11/13 07:23:32;;;;;;;13.43;9.13;;;;;;;;;;4993054;28;20932;-50
2021/11/13 07:25:58;;;;;;;10.60;9.30;;;;;;;;;;4993053;28;20409;-50
2021/11/13 07:28:39;;;;;;;11.57;8.83;;;;;;;;;;4992779;28;20427;-51
2021/11/13 07:31:06;;;;;;;17.40;9.80;;;;;;;;;;4993053;28;20430;-50
2021/11/13 07:33:32;;;;;;;14.03;9.60;;;;;;;;;;4992577;28;20428;-51
2021/11/13 07:35:58;;;;;;;12.43;9.13;;;;;;;;;;4992749;28;20413;-51
2021/11/13 07:38:24;;;;;;;14.17;10.13;;;;;;;;;;4992530;28;20412;-51
2021/11/13 07:40:50;;;;;;;16.97;9.60;;;;;;;;;;4992741;28;20936;-51
2021/11/13 07:43:17;;;;;;;12.33;9.03;;;;;;;;;;4992662;28;20481;-50
2021/11/13 07:45:43;;;;;;;12.40;9.37;;;;;;;;;;4992731;28;20407;-51
2021/11/13 07:48:09;;;;;;;11.97;8.60;;;;;;;;;;4992420;28;20903;-51
2021/11/13 07:50:36;;;;;;;12.67;9.63;;;;;;;;;;4992559;28;20459;-53
2021/11/13 07:53:04;;;;;;;15.90;10.30;;;;;;;;;;4992590;28;20423;-50
2021/11/13 07:55:30;;;;;;;14.40;10.43;;;;;;;;;;4992530;28;20453;-50
2021/11/13 07:57:56;;;;;;;14.60;9.53;;;;;;;;;;4992195;28;20417;-51
2021/11/13 08:00:22;;;;;;;14.60;9.20;;;;;;;;;;4992541;28;20409;-51
2021/11/13 08:02:48;;;;;;;16.50;9.50;;;;;;;;;;4992377;28;20469;-51
2021/11/13 08:05:15;;;;;;;13.33;9.33;;;;;;;;;;4992830;28;20492;-51
2021/11/13 08:07:42;;;;;;;15.97;9.70;;;;;;;;;;4992196;28;20515;-51
2021/11/13 08:10:08;;;;;;;13.63;9.30;;;;;;;;;;4992422;28;20505;-51
2021/11/13 08:12:34;;;;;;;14.10;10.80;;;;;;;;;;4992115;28;20447;-51
2021/11/13 08:15:00;;;;;;;14.60;10.43;;;;;;;;;;4992379;28;21052;-50
2021/11/13 08:17:26;;;;;;;19.23;10.73;;;;;;;;;;4992010;28;20489;-52
2021/11/13 08:19:52;;;;;;;13.00;9.70;;;;;;;;;;4992269;28;20873;-53
2021/11/13 08:22:18;;;;;;;14.23;11.27;;;;;;;;;;4992302;28;20593;-50
2021/11/13 08:24:44;;;;;;;16.23;11.60;;;;;;;;;;4992341;28;20414;-50
2021/11/13 08:27:12;;;;;;;13.70;10.33;;;;;;;;;;4992215;28;20413;-50
2021/11/13 08:29:38;;;;;;;14.73;10.30;;;;;;;;;;4992127;28;20911;-51
2021/11/13 08:32:06;;;;;;;14.87;10.10;;;;;;;;;;4992624;28;20485;-51
2021/11/13 08:34:32;;;;;;;12.50;10.70;;;;;;;;;;4992200;28;20538;-51
2021/11/13 08:36:59;;;;;;;13.23;10.43;;;;;;;;;;4992119;28;20752;-50
2021/11/13 08:39:25;;;;;;;22.30;11.10;;;;;;;;;;4991551;28;20419;-51
2021/11/13 08:41:51;;;;;;;18.63;10.93;;;;;;;;;;4992138;28;20463;-50
2021/11/13 08:44:18;;;;;;;12.17;9.73;;;;;;;;;;4992026;28;20942;-51
2021/11/13 08:46:44;;;;;;;15.17;10.47;;;;;;;;;;4994539;28;20438;-51
2021/11/13 08:49:10;;;;;;;12.90;9.63;;;;;;;;;;4995834;28;20893;-50
2021/11/13 08:51:36;;;;;;;17.73;11.13;;;;;;;;;;4995847;28;20469;-52
2021/11/13 09:09:38;;;;;;;12.23;8.30;;;;;;;;;;5472522;23;20235;-51
2021/11/13 09:12:05;;;;;;;11.47;8.60;;;;;;;;;;5000916;28;20495;-51
2021/11/13 09:14:32;;;;;;;10.90;8.00;;;;;;;;;;4995850;28;20878;-51
2021/11/13 09:16:59;;;;;;;9.10;7.43;;;;;;;;;;4995673;28;20765;-50
2021/11/13 09:19:25;;;;;;;10.83;7.23;;;;;;;;;;4994394;28;20496;-49
2021/11/13 09:21:52;;;;;;;11.83;7.87;;;;;;;;;;4996193;28;20969;-50
2021/11/13 09:24:19;;;;;;;11.60;7.60;;;;;;;;;;4997433;28;20458;-52
2021/11/13 09:26:45;;;;;;;15.40;7.67;;;;;;;;;;4997478;28;20768;-51
2021/11/13 09:29:11;;;;;;;7.63;6.73;;;;;;;;;;4997194;28;20422;-50
2021/11/13 09:31:41;;;;;;;12.70;7.80;;;;;;;;;;4996716;28;20399;-51
2021/11/13 09:34:08;;;;;;;11.53;7.60;;;;;;;;;;4995892;28;20454;-51
2021/11/13 09:36:34;;;;;;;9.50;7.17;;;;;;;;;;4995531;28;20822;-50
2021/11/13 09:39:00;;;;;;;8.07;6.20;;;;;;;;;;4994750;28;20426;-49
2021/11/13 09:41:26;;;;;;;9.00;6.63;;;;;;;;;;4995297;28;20919;-50
2021/11/13 09:43:52;;;;;;;7.77;5.97;;;;;;;;;;4995071;28;20458;-51
2021/11/13 09:46:18;;;;;;;9.40;5.60;;;;;;;;;;4995055;28;20420;-49
2021/11/13 09:48:44;;;;;;;6.83;5.37;;;;;;;;;;4995578;28;20456;-49
2021/11/13 09:51:11;;;;;;;8.10;5.80;;;;;;;;;;4995957;28;20772;-51
2021/11/13 09:53:37;;;;;;;6.67;5.93;;;;;;;;;;4995872;28;20539;-51
2021/11/13 09:56:03;;;;;;;5.77;5.00;;;;;;;;;;4996293;28;20400;-51
2021/11/13 09:58:30;;;;;;;9.20;5.37;;;;;;;;;;4994907;28;20946;-49
2021/11/13 10:00:56;;;;;;;7.37;6.10;;;;;;;;;;4996334;28;20872;-50
2021/11/13 10:03:23;;;;;;;6.83;6.10;;;;;;;;;;4996467;28;20413;-50
2021/11/13 10:05:50;;;;;;;7.00;5.60;;;;;;;;;;4996146;28;20408;-50
2021/11/13 10:08:16;;;;;;;11.57;6.77;;;;;;;;;;4995882;28;20404;-50
2021/11/13 10:10:43;;;;;;;8.50;6.47;;;;;;;;;;4994862;28;20416;-49
2021/11/13 10:13:27;;;;;;;6.17;5.57;;;;;;;;;;4996447;28;20419;-49
2021/11/13 10:15:54;;;;;;;6.47;5.70;;;;;;;;;;4993503;28;20982;-50
2021/11/13 10:18:22;;;;;;;6.27;5.67;;;;;;;;;;4994639;28;20410;-51
2021/11/13 10:20:50;;;;;;;7.13;5.30;;;;;;;;;;4994740;28;20403;-51
2021/11/13 10:23:22;;;;;;;6.00;5.50;;;;;;;;;;4994115;28;20407;-50
2021/11/13 10:26:00;;;;;;;6.47;5.57;;;;;;;;;;4994429;28;20956;-50
2021/11/13 10:28:27;;;;;;;7.80;6.27;;;;;;;;;;4994115;28;20411;-49
2021/11/13 10:31:08;;;;;;;7.90;5.57;;;;;;;;;;4994292;28;20414;-49
2021/11/13 10:33:34;;;;;;;10.57;5.73;;;;;;;;;;4994064;28;20411;-49
2021/11/13 10:36:00;;;;;;;10.20;5.77;;;;;;;;;;4994116;28;20416;-51
2021/11/13 10:38:27;;;;;;;8.13;6.80;;;;;;;;;;4993344;28;20847;-49
2021/11/13 10:40:54;;;;;;;8.07;6.70;;;;;;;;;;4994104;28;20422;-51
2021/11/13 10:43:20;;;;;;;6.67;5.83;;;;;;;;;;4993911;28;20404;-51
2021/11/13 10:45:57;;;;;;;6.00;5.50;;;;;;;;;;4993789;28;20466;-51
2021/11/13 10:48:23;;;;;;;10.03;6.80;;;;;;;;;;4993527;28;20719;-49
2021/11/13 10:50:49;;;;;;;10.10;6.00;;;;;;;;;;4993783;28;20416;-51
2021/11/13 10:53:23;;;;;;;7.43;6.33;;;;;;;;;;4993708;28;20415;-49
2021/11/13 10:56:06;;;;;;;8.63;6.63;;;;;;;;;;4993599;28;20491;-51
2021/11/13 10:58:33;;;;;;;8.70;7.10;;;;;;;;;;4993328;28;20420;-50
2021/11/13 11:01:05;;;;;;;6.83;6.07;;;;;;;;;;4988114;28;20444;-51
2021/11/13 11:03:32;;;;;;;8.90;6.33;;;;;;;;;;4992015;28;20774;-50
2021/11/13 11:05:58;;;;;;;6.37;5.60;;;;;;;;;;4993309;28;20409;-49
2021/11/13 11:08:28;;;;;;;5.97;5.43;;;;;;;;;;4992519;28;20494;-50
2021/11/13 11:10:54;;;;;;;6.50;5.90;;;;;;;;;;4993428;28;20424;-50
2021/11/13 11:13:39;;;;;;;6.27;5.30;;;;;;;;;;4993331;28;20495;-51
2021/11/13 11:16:19;;;;;;;7.03;5.83;;;;;;;;;;4992842;28;20423;-51
2021/11/13 11:19:05;;;;;;;8.00;5.17;;;;;;;;;;4993063;28;20789;-50
2021/11/13 11:21:48;;;;;;;7.40;5.47;;;;;;;;;;4992325;28;20399;-50
2021/11/13 11:24:34;;;;;;;7.60;5.63;;;;;;;;;;4992404;28;20405;-49
2021/11/13 11:27:18;;;;;;;5.23;4.80;;;;;;;;;;4992895;28;20475;-50
2021/11/13 11:29:46;;;;;;;6.93;5.63;;;;;;;;;;4992686;28;20824;-50
2021/11/13 11:32:15;;;;;;;6.20;5.60;;;;;;;;;;4992808;28;20412;-51
2021/11/13 11:34:42;;;;;;;7.00;5.70;;;;;;;;;;4992815;28;20451;-51
2021/11/13 11:37:13;;;;;;;8.33;6.07;;;;;;;;;;4992795;28;20888;-51
2021/11/13 11:39:40;;;;;;;7.40;6.40;;;;;;;;;;4992641;28;20470;-51
2021/11/13 11:42:07;;;;;;;6.67;5.70;;;;;;;;;;4992798;28;20434;-51
2021/11/13 11:44:35;;;;;;;6.93;6.20;;;;;;;;;;4992919;28;20494;-49
2021/11/13 11:47:01;;;;;;;6.93;6.23;;;;;;;;;;4992989;28;20419;-52
2021/11/13 11:49:28;;;;;;;6.03;5.43;;;;;;;;;;4992221;28;20757;-52
2021/11/13 11:51:54;;;;;;;7.33;6.00;;;;;;;;;;4992658;28;20951;-50
2021/11/13 11:54:20;;;;;;;6.47;5.30;;;;;;;;;;4992582;28;20794;-50
2021/11/13 11:56:46;;;;;;;7.03;5.50;;;;;;;;;;4992564;28;20407;-49
2021/11/13 11:59:13;;;;;;;5.93;5.43;;;;;;;;;;4992358;28;20916;-51
2021/11/13 12:01:41;;;;;;;6.30;5.67;;;;;;;;;;4992553;28;20400;-51
2021/11/13 12:04:11;;;;;;;11.90;5.93;;;;;;;;;;4992720;28;20419;-52
2021/11/13 12:06:38;;;;;;;6.90;6.20;;;;;;;;;;4992669;28;20531;-51
2021/11/13 12:09:04;;;;;;;6.80;5.67;;;;;;;;;;4992202;28;20423;-51
2021/11/13 12:11:34;;;;;;;8.53;6.13;;;;;;;;;;4992484;28;20427;-51
2021/11/13 12:14:20;;;;;;;6.13;5.57;;;;;;;;;;4992366;28;20459;-51
2021/11/13 12:16:46;;;;;;;8.33;5.83;;;;;;;;;;4992502;28;20400;-51
2021/11/13 12:19:12;;;;;;;6.07;5.47;;;;;;;;;;4991948;28;20778;-51
2021/11/13 12:21:38;;;;;;;5.90;5.23;;;;;;;;;;4995122;28;20438;-51
2021/11/13 12:24:05;;;;;;;8.87;6.60;;;;;;;;;;4996470;28;20767;-51
2021/11/13 12:26:35;;;;;;;7.17;6.23;;;;;;;;;;4996398;28;20466;-51
2021/11/13 12:29:01;;;;;;;8.43;7.20;;;;;;;;;;4995925;28;20428;-50
2021/11/13 12:31:29;;;;;;;7.63;6.70;;;;;;;;;;4996397;28;20400;-51
2021/11/13 12:34:03;;;;;;;8.97;7.87;;;;;;;;;;4996361;28;20786;-50
2021/11/13 12:36:31;;;;;;;10.93;6.80;;;;;;;;;;4996069;28;20918;-51
2021/11/13 12:38:57;;;;;;;8.10;6.57;;;;;;;;;;4995797;28;20498;-49
2021/11/13 12:41:24;;;;;;;8.83;7.20;;;;;;;;;;4995160;28;20918;-50
2021/11/13 12:43:57;;;;;;;8.57;6.97;;;;;;;;;;4994692;28;20939;-51
2021/11/13 12:46:44;;;;;;;10.50;7.67;;;;;;;;;;4995978;28;20977;-50
2021/11/13 12:49:16;;;;;;;10.87;7.50;;;;;;;;;;4995641;28;20416;-51
2021/11/13 12:51:43;;;;;;;9.70;7.20;;;;;;;;;;4995941;28;20396;-49
2021/11/13 12:54:16;;;;;;;8.77;6.93;;;;;;;;;;4995745;28;20463;-50
2021/11/13 12:56:43;;;;;;;8.47;7.47;;;;;;;;;;4995938;28;20400;-50
2021/11/13 12:59:14;;;;;;;8.03;7.20;;;;;;;;;;4995470;28;20424;-49
2021/11/13 13:01:47;;;;;;;11.10;6.90;;;;;;;;;;4996022;28;20419;-50
2021/11/13 13:04:13;;;;;;;7.40;6.70;;;;;;;;;;4995534;28;20817;-50
2021/11/13 13:06:46;;;;;;;10.90;7.40;;;;;;;;;;4995830;28;20400;-50
2021/11/13 13:09:12;;;;;;;8.10;7.33;;;;;;;;;;4995247;28;20432;-50
2021/11/13 13:11:48;;;;;;;8.70;7.50;;;;;;;;;;4995581;28;20915;-52
2021/11/13 13:14:15;;;;;;;6.60;6.00;;;;;;;;;;4995992;28;20451;-50
2021/11/13 13:16:41;;;;;;;8.90;6.00;;;;;;;;;;4996148;28;20405;-51
2021/11/13 13:19:07;;;;;;;6.63;6.03;;;;;;;;;;4995825;28;20486;-52
2021/11/13 13:21:33;;;;;;;6.10;5.50;;;;;;;;;;4996819;28;20404;-52
2021/11/13 13:23:59;;;;;;;7.87;5.30;;;;;;;;;;4997256;28;20404;-50
2021/11/13 13:26:25;;;;;;;7.77;5.83;;;;;;;;;;4997327;28;20418;-52
2021/11/13 13:28:51;;;;;;;6.60;5.90;;;;;;;;;;4997171;28;20935;-51
2021/11/13 13:31:17;;;;;;;5.90;5.30;;;;;;;;;;4997251;28;20404;-51
2021/11/13 13:33:51;;;;;;;6.80;6.10;;;;;;;;;;4996901;28;20404;-50
2021/11/13 13:36:23;;;;;;;7.43;5.73;;;;;;;;;;4997554;28;20400;-52
2021/11/13 13:38:49;;;;;;;6.23;5.57;;;;;;;;;;4996094;28;20434;-50
2021/11/13 13:41:17;;;;;;;6.23;5.60;;;;;;;;;;4996298;28;20796;-51
2021/11/13 13:43:45;;;;;;;7.33;5.60;;;;;;;;;;4989183;28;20916;-50
2021/11/13 13:46:11;;;;;;;6.60;5.90;;;;;;;;;;4994681;28;20403;-52
2021/11/13 13:48:45;;;;;;;6.73;6.13;;;;;;;;;;4994687;28;20421;-51
2021/11/13 13:51:18;;;;;;;5.97;5.37;;;;;;;;;;4995074;28;20396;-51
2021/11/13 13:53:44;;;;;;;7.67;5.60;;;;;;;;;;4994884;28;20428;-50
2021/11/13 13:56:19;;;;;;;6.60;5.90;;;;;;;;;;4994909;28;20452;-51
2021/11/13 13:58:45;;;;;;;8.20;5.93;;;;;;;;;;4994513;28;20438;-51
2021/11/13 14:01:11;;;;;;;6.63;5.80;;;;;;;;;;4994878;28;20400;-50
2021/11/13 14:03:37;;;;;;;6.60;6.00;;;;;;;;;;4994827;28;20400;-50
2021/11/13 14:06:04;;;;;;;7.20;6.57;;;;;;;;;;4994685;28;20404;-50
2021/11/13 14:08:30;;;;;;;7.60;6.80;;;;;;;;;;4994700;28;20764;-52
2021/11/13 14:10:56;;;;;;;6.40;5.80;;;;;;;;;;4993558;28;20856;-50
2021/11/13 14:13:32;;;;;;;7.30;6.20;;;;;;;;;;4994475;28;20383;-52
2021/11/13 14:15:59;;;;;;;5.97;5.37;;;;;;;;;;4997793;28;20458;-50
2021/11/13 14:18:35;;;;;;;6.07;5.50;;;;;;;;;;5014285;28;20468;-52
2021/11/13 14:21:01;;;;;;;6.73;4.87;;;;;;;;;;5008069;28;20401;-51
2021/11/13 14:23:37;;;;;;;5.50;4.97;;;;;;;;;;4993704;28;20401;-51
2021/11/13 14:26:05;;;;;;;6.57;5.30;;;;;;;;;;4995286;28;20414;-52
2021/11/13 14:28:42;;;;;;;5.70;5.20;;;;;;;;;;4994639;28;20428;-51
2021/11/13 14:31:14;;;;;;;5.90;5.30;;;;;;;;;;4995027;28;20407;-51
2021/11/13 14:33:54;;;;;;;5.60;5.10;;;;;;;;;;4994695;28;20404;-51
2021/11/13 14:36:24;;;;;;;7.37;5.63;;;;;;;;;;4994612;28;20424;-50
2021/11/13 14:38:53;;;;;;;6.30;5.50;;;;;;;;;;4994311;28;20753;-52
2021/11/13 14:41:19;;;;;;;5.87;5.17;;;;;;;;;;4994641;28;20506;-51
2021/11/13 14:43:47;;;;;;;6.13;5.57;;;;;;;;;;4993756;28;20405;-52
2021/11/13 14:46:14;;;;;;;6.17;5.57;;;;;;;;;;4994431;28;20404;-51
2021/11/13 14:48:40;;;;;;;6.90;6.17;;;;;;;;;;4994100;28;20440;-51